sensor_id;sensor_type;location;lat;lon;timestamp;P1;durP1;ratioP1;P2;durP2;ratioP2
68910;SDS011;55953;51.650;-0.522;2022-10-23T00:01:49;23.10;;;9.00;;
68910;SDS011;55953;51.650;-0.522;2022-10-23T00:04:20;26.70;;;8.20;;
68910;SDS011;55953;51.650;-0.522;2022-10-23T00:06:50;29.20;;;8.90;;
68910;SDS011;55953;51.650;-0.522;2022-10-23T00:09:20;22.60;;;8.30;;
68910;SDS011;55953;51.650;-0.522;2022-10-23T00:11:51;25.80;;;8.50;;
68910;SDS011;55953;51.650;-0.522;2022-10-23T00:14:22;23.60;;;8.70;;
68910;SDS011;55953;51.650;-0.522;2022-10-23T00:16:51;23.20;;;8.30;;
68910;SDS011;55953;51.650;-0.522;2022-10-23T00:19:19;23.60;;;8.20;;
68910;SDS011;55953;51.650;-0.522;2022-10-23T00:21:47;22.80;;;8.20;;
68910;SDS011;55953;51.650;-0.522;2022-10-23T00:24:15;23.90;;;8.50;;
68910;SDS011;55953;51.650;-0.522;2022-10-23T00:26:43;27.50;;;8.00;;
68910;SDS011;55953;51.650;-0.522;2022-10-23T00:29:11;19.50;;;7.00;;
68910;SDS011;55953;51.650;-0.522;2022-10-23T00:31:39;27.30;;;8.50;;
68910;SDS011;55953;51.650;-0.522;2022-10-23T00:34:07;28.20;;;8.50;;
68910;SDS011;55953;51.650;-0.522;2022-10-23T00:36:36;27.10;;;7.60;;
68910;SDS011;55953;51.650;-0.522;2022-10-23T00:39:04;25.90;;;8.60;;
68910;SDS011;55953;51.650;-0.522;2022-10-23T00:41:32;34.60;;;8.20;;
68910;SDS011;55953;51.650;-0.522;2022-10-23T00:46:58;22.10;;;8.60;;
68910;SDS011;55953;51.650;-0.522;2022-10-23T00:49:26;24.80;;;7.60;;
68910;SDS011;55953;51.650;-0.522;2022-10-23T00:51:58;28.10;;;8.70;;
68910;SDS011;55953;51.650;-0.522;2022-10-23T00:54:32;26.30;;;9.00;;
68910;SDS011;55953;51.650;-0.522;2022-10-23T00:57:06;30.70;;;8.20;;
68910;SDS011;55953;51.650;-0.522;2022-10-23T00:59:39;23.70;;;8.50;;
68910;SDS011;55953;51.650;-0.522;2022-10-23T01:02:07;26.30;;;8.70;;
68910;SDS011;55953;51.650;-0.522;2022-10-23T01:04:36;20.20;;;8.50;;
68910;SDS011;55953;51.650;-0.522;2022-10-23T01:15:22;28.50;;;7.80;;
68910;SDS011;55953;51.650;-0.522;2022-10-23T01:21:01;20.60;;;7.80;;
68910;SDS011;55953;51.650;-0.522;2022-10-23T01:26:49;25.30;;;8.50;;
68910;SDS011;55953;51.650;-0.522;2022-10-23T01:29:44;24.40;;;7.20;;
68910;SDS011;55953;51.650;-0.522;2022-10-23T01:32:28;19.10;;;7.80;;
68910;SDS011;55953;51.650;-0.522;2022-10-23T01:35:15;19.90;;;7.20;;
68910;SDS011;55953;51.650;-0.522;2022-10-23T01:38:08;17.10;;;7.40;;
68910;SDS011;55953;51.650;-0.522;2022-10-23T01:40:59;18.50;;;6.80;;
68910;SDS011;55953;51.650;-0.522;2022-10-23T01:43:58;27.90;;;7.50;;
68910;SDS011;55953;51.650;-0.522;2022-10-23T01:46:35;19.50;;;7.20;;
68910;SDS011;55953;51.650;-0.522;2022-10-23T01:49:08;16.10;;;6.80;;
68910;SDS011;55953;51.650;-0.522;2022-10-23T01:51:44;18.40;;;6.50;;
68910;SDS011;55953;51.650;-0.522;2022-10-23T01:54:18;21.50;;;7.10;;
68910;SDS011;55953;51.650;-0.522;2022-10-23T01:56:50;17.00;;;6.50;;
68910;SDS011;55953;51.650;-0.522;2022-10-23T01:59:28;15.70;;;6.50;;
68910;SDS011;55953;51.650;-0.522;2022-10-23T02:02:02;17.90;;;6.80;;
68910;SDS011;55953;51.650;-0.522;2022-10-23T02:04:46;16.50;;;6.70;;
68910;SDS011;55953;51.650;-0.522;2022-10-23T02:07:22;22.80;;;6.50;;
68910;SDS011;55953;51.650;-0.522;2022-10-23T02:09:50;16.90;;;6.80;;
68910;SDS011;55953;51.650;-0.522;2022-10-23T02:12:26;21.80;;;6.70;;
68910;SDS011;55953;51.650;-0.522;2022-10-23T02:15:09;21.90;;;7.50;;
68910;SDS011;55953;51.650;-0.522;2022-10-23T02:18:00;20.40;;;7.60;;
68910;SDS011;55953;51.650;-0.522;2022-10-23T02:20:54;20.60;;;6.30;;
68910;SDS011;55953;51.650;-0.522;2022-10-23T02:23:31;17.40;;;6.00;;
68910;SDS011;55953;51.650;-0.522;2022-10-23T02:26:18;26.30;;;6.30;;
68910;SDS011;55953;51.650;-0.522;2022-10-23T02:31:48;21.50;;;7.30;;
68910;SDS011;55953;51.650;-0.522;2022-10-23T02:34:17;16.20;;;5.90;;
68910;SDS011;55953;51.650;-0.522;2022-10-23T02:36:46;19.60;;;6.30;;
68910;SDS011;55953;51.650;-0.522;2022-10-23T02:39:14;17.90;;;6.10;;
68910;SDS011;55953;51.650;-0.522;2022-10-23T02:47:40;18.80;;;6.40;;
68910;SDS011;55953;51.650;-0.522;2022-10-23T02:50:31;16.90;;;6.20;;
68910;SDS011;55953;51.650;-0.522;2022-10-23T02:58:50;17.60;;;6.10;;
68910;SDS011;55953;51.650;-0.522;2022-10-23T03:01:44;29.80;;;6.90;;
68910;SDS011;55953;51.650;-0.522;2022-10-23T03:04:26;15.00;;;5.60;;
68910;SDS011;55953;51.650;-0.522;2022-10-23T03:06:56;15.50;;;5.30;;
68910;SDS011;55953;51.650;-0.522;2022-10-23T03:09:25;21.60;;;5.60;;
68910;SDS011;55953;51.650;-0.522;2022-10-23T03:11:53;20.30;;;6.30;;
68910;SDS011;55953;51.650;-0.522;2022-10-23T03:14:21;18.80;;;5.60;;
68910;SDS011;55953;51.650;-0.522;2022-10-23T03:16:49;17.40;;;6.10;;
68910;SDS011;55953;51.650;-0.522;2022-10-23T03:19:17;15.70;;;5.20;;
68910;SDS011;55953;51.650;-0.522;2022-10-23T03:21:45;18.00;;;5.20;;
68910;SDS011;55953;51.650;-0.522;2022-10-23T03:24:13;17.50;;;5.50;;
68910;SDS011;55953;51.650;-0.522;2022-10-23T03:26:42;20.80;;;5.50;;
68910;SDS011;55953;51.650;-0.522;2022-10-23T03:29:10;15.60;;;5.60;;
68910;SDS011;55953;51.650;-0.522;2022-10-23T03:31:44;16.10;;;5.70;;
68910;SDS011;55953;51.650;-0.522;2022-10-23T03:34:12;16.00;;;5.50;;
68910;SDS011;55953;51.650;-0.522;2022-10-23T03:36:41;19.50;;;5.80;;
68910;SDS011;55953;51.650;-0.522;2022-10-23T03:39:10;18.00;;;5.10;;
68910;SDS011;55953;51.650;-0.522;2022-10-23T03:41:37;17.70;;;6.30;;
68910;SDS011;55953;51.650;-0.522;2022-10-23T03:44:05;13.60;;;5.10;;
68910;SDS011;55953;51.650;-0.522;2022-10-23T03:46:33;16.40;;;5.20;;
68910;SDS011;55953;51.650;-0.522;2022-10-23T03:49:01;13.50;;;5.60;;
68910;SDS011;55953;51.650;-0.522;2022-10-23T03:51:29;15.80;;;5.30;;
68910;SDS011;55953;51.650;-0.522;2022-10-23T03:53:57;22.60;;;5.50;;
68910;SDS011;55953;51.650;-0.522;2022-10-23T03:56:25;19.90;;;5.70;;
68910;SDS011;55953;51.650;-0.522;2022-10-23T03:58:53;13.40;;;4.60;;
68910;SDS011;55953;51.650;-0.522;2022-10-23T04:01:23;17.80;;;5.40;;
68910;SDS011;55953;51.650;-0.522;2022-10-23T04:03:52;16.20;;;5.50;;
68910;SDS011;55953;51.650;-0.522;2022-10-23T04:06:20;16.90;;;5.20;;
68910;SDS011;55953;51.650;-0.522;2022-10-23T04:08:48;19.70;;;5.40;;
68910;SDS011;55953;51.650;-0.522;2022-10-23T04:11:17;15.00;;;4.90;;
68910;SDS011;55953;51.650;-0.522;2022-10-23T04:13:46;17.50;;;5.40;;
68910;SDS011;55953;51.650;-0.522;2022-10-23T04:16:14;12.90;;;5.00;;
68910;SDS011;55953;51.650;-0.522;2022-10-23T04:18:44;12.60;;;5.20;;
68910;SDS011;55953;51.650;-0.522;2022-10-23T04:21:12;16.30;;;5.30;;
68910;SDS011;55953;51.650;-0.522;2022-10-23T04:23:40;14.70;;;5.60;;
68910;SDS011;55953;51.650;-0.522;2022-10-23T04:26:17;11.70;;;5.90;;
68910;SDS011;55953;51.650;-0.522;2022-10-23T04:28:45;11.50;;;5.80;;
68910;SDS011;55953;51.650;-0.522;2022-10-23T04:31:13;14.60;;;5.70;;
68910;SDS011;55953;51.650;-0.522;2022-10-23T04:33:42;13.40;;;5.20;;
68910;SDS011;55953;51.650;-0.522;2022-10-23T04:36:20;21.50;;;5.60;;
68910;SDS011;55953;51.650;-0.522;2022-10-23T04:38:48;14.40;;;5.30;;
68910;SDS011;55953;51.650;-0.522;2022-10-23T04:41:16;17.40;;;5.90;;
68910;SDS011;55953;51.650;-0.522;2022-10-23T04:43:45;14.70;;;5.30;;
68910;SDS011;55953;51.650;-0.522;2022-10-23T04:46:14;17.10;;;5.60;;
68910;SDS011;55953;51.650;-0.522;2022-10-23T04:48:46;18.50;;;5.50;;
68910;SDS011;55953;51.650;-0.522;2022-10-23T04:51:49;16.90;;;5.40;;
68910;SDS011;55953;51.650;-0.522;2022-10-23T04:54:43;19.00;;;5.70;;
68910;SDS011;55953;51.650;-0.522;2022-10-23T04:57:31;15.80;;;6.00;;
68910;SDS011;55953;51.650;-0.522;2022-10-23T05:00:07;13.40;;;5.30;;
68910;SDS011;55953;51.650;-0.522;2022-10-23T05:02:44;13.50;;;4.80;;
68910;SDS011;55953;51.650;-0.522;2022-10-23T05:05:14;22.00;;;6.10;;
68910;SDS011;55953;51.650;-0.522;2022-10-23T05:08:21;15.50;;;4.40;;
68910;SDS011;55953;51.650;-0.522;2022-10-23T05:11:08;11.10;;;4.80;;
68910;SDS011;55953;51.650;-0.522;2022-10-23T05:13:42;21.60;;;6.10;;
68910;SDS011;55953;51.650;-0.522;2022-10-23T05:16:13;14.80;;;4.70;;
68910;SDS011;55953;51.650;-0.522;2022-10-23T05:18:57;15.10;;;4.80;;
68910;SDS011;55953;51.650;-0.522;2022-10-23T05:21:28;14.30;;;4.60;;
68910;SDS011;55953;51.650;-0.522;2022-10-23T05:24:03;17.90;;;5.40;;
68910;SDS011;55953;51.650;-0.522;2022-10-23T05:26:32;16.00;;;4.90;;
68910;SDS011;55953;51.650;-0.522;2022-10-23T05:29:05;12.80;;;4.90;;
68910;SDS011;55953;51.650;-0.522;2022-10-23T05:31:34;10.40;;;4.70;;
68910;SDS011;55953;51.650;-0.522;2022-10-23T05:34:10;12.40;;;4.80;;
68910;SDS011;55953;51.650;-0.522;2022-10-23T05:36:44;12.80;;;4.80;;
68910;SDS011;55953;51.650;-0.522;2022-10-23T05:39:13;11.70;;;4.30;;
68910;SDS011;55953;51.650;-0.522;2022-10-23T05:41:42;15.50;;;4.80;;
68910;SDS011;55953;51.650;-0.522;2022-10-23T05:44:10;16.50;;;5.30;;
68910;SDS011;55953;51.650;-0.522;2022-10-23T05:46:57;11.70;;;4.80;;
68910;SDS011;55953;51.650;-0.522;2022-10-23T05:49:54;15.70;;;5.20;;
68910;SDS011;55953;51.650;-0.522;2022-10-23T05:52:47;11.40;;;5.10;;
68910;SDS011;55953;51.650;-0.522;2022-10-23T05:55:29;15.80;;;6.10;;
68910;SDS011;55953;51.650;-0.522;2022-10-23T05:58:15;14.20;;;5.80;;
68910;SDS011;55953;51.650;-0.522;2022-10-23T06:01:08;14.80;;;5.30;;
68910;SDS011;55953;51.650;-0.522;2022-10-23T06:03:52;12.40;;;5.20;;
68910;SDS011;55953;51.650;-0.522;2022-10-23T06:06:22;10.00;;;5.30;;
68910;SDS011;55953;51.650;-0.522;2022-10-23T06:08:50;14.20;;;4.90;;
68910;SDS011;55953;51.650;-0.522;2022-10-23T06:11:19;15.00;;;5.20;;
68910;SDS011;55953;51.650;-0.522;2022-10-23T06:13:55;12.70;;;5.20;;
68910;SDS011;55953;51.650;-0.522;2022-10-23T06:16:28;13.20;;;5.10;;
68910;SDS011;55953;51.650;-0.522;2022-10-23T06:18:57;12.00;;;5.20;;
68910;SDS011;55953;51.650;-0.522;2022-10-23T06:21:25;11.10;;;5.00;;
68910;SDS011;55953;51.650;-0.522;2022-10-23T06:23:54;10.90;;;4.30;;
68910;SDS011;55953;51.650;-0.522;2022-10-23T06:26:25;16.40;;;5.20;;
68910;SDS011;55953;51.650;-0.522;2022-10-23T06:29:19;10.40;;;4.40;;
68910;SDS011;55953;51.650;-0.522;2022-10-23T06:31:47;12.30;;;5.10;;
68910;SDS011;55953;51.650;-0.522;2022-10-23T06:34:15;12.30;;;5.10;;
68910;SDS011;55953;51.650;-0.522;2022-10-23T06:36:44;9.90;;;4.70;;
68910;SDS011;55953;51.650;-0.522;2022-10-23T06:39:31;10.00;;;4.70;;
68910;SDS011;55953;51.650;-0.522;2022-10-23T06:42:19;11.20;;;4.70;;
68910;SDS011;55953;51.650;-0.522;2022-10-23T06:44:53;11.90;;;4.80;;
68910;SDS011;55953;51.650;-0.522;2022-10-23T06:47:41;13.40;;;5.40;;
68910;SDS011;55953;51.650;-0.522;2022-10-23T06:50:27;11.60;;;4.80;;
68910;SDS011;55953;51.650;-0.522;2022-10-23T06:53:04;11.50;;;4.50;;
68910;SDS011;55953;51.650;-0.522;2022-10-23T06:55:33;13.10;;;5.10;;
68910;SDS011;55953;51.650;-0.522;2022-10-23T06:58:02;15.60;;;5.10;;
68910;SDS011;55953;51.650;-0.522;2022-10-23T07:00:31;12.90;;;5.50;;
68910;SDS011;55953;51.650;-0.522;2022-10-23T07:02:59;12.90;;;5.40;;
68910;SDS011;55953;51.650;-0.522;2022-10-23T07:05:27;12.40;;;4.80;;
68910;SDS011;55953;51.650;-0.522;2022-10-23T07:07:55;15.40;;;6.20;;
68910;SDS011;55953;51.650;-0.522;2022-10-23T07:10:25;16.70;;;5.60;;
68910;SDS011;55953;51.650;-0.522;2022-10-23T07:12:57;15.10;;;5.50;;
68910;SDS011;55953;51.650;-0.522;2022-10-23T07:15:48;12.60;;;5.60;;
68910;SDS011;55953;51.650;-0.522;2022-10-23T07:18:19;11.00;;;5.60;;
68910;SDS011;55953;51.650;-0.522;2022-10-23T07:21:19;11.70;;;5.50;;
68910;SDS011;55953;51.650;-0.522;2022-10-23T07:23:47;13.30;;;6.40;;
68910;SDS011;55953;51.650;-0.522;2022-10-23T07:26:15;17.40;;;5.50;;
68910;SDS011;55953;51.650;-0.522;2022-10-23T07:28:45;14.80;;;6.00;;
68910;SDS011;55953;51.650;-0.522;2022-10-23T07:31:17;15.70;;;6.20;;
68910;SDS011;55953;51.650;-0.522;2022-10-23T07:34:09;12.20;;;5.70;;
68910;SDS011;55953;51.650;-0.522;2022-10-23T07:36:37;14.30;;;5.80;;
68910;SDS011;55953;51.650;-0.522;2022-10-23T07:39:05;12.30;;;5.50;;
68910;SDS011;55953;51.650;-0.522;2022-10-23T07:41:35;13.00;;;6.20;;
68910;SDS011;55953;51.650;-0.522;2022-10-23T07:44:03;17.90;;;5.40;;
68910;SDS011;55953;51.650;-0.522;2022-10-23T07:46:31;17.90;;;6.10;;
68910;SDS011;55953;51.650;-0.522;2022-10-23T07:49:00;11.90;;;5.40;;
68910;SDS011;55953;51.650;-0.522;2022-10-23T07:51:28;8.60;;;5.00;;
68910;SDS011;55953;51.650;-0.522;2022-10-23T07:53:58;11.90;;;5.00;;
68910;SDS011;55953;51.650;-0.522;2022-10-23T07:56:45;13.90;;;5.40;;
68910;SDS011;55953;51.650;-0.522;2022-10-23T07:59:19;13.00;;;5.40;;
68910;SDS011;55953;51.650;-0.522;2022-10-23T08:01:53;10.50;;;4.80;;
68910;SDS011;55953;51.650;-0.522;2022-10-23T08:04:34;10.80;;;4.80;;
68910;SDS011;55953;51.650;-0.522;2022-10-23T08:07:09;11.30;;;5.00;;
68910;SDS011;55953;51.650;-0.522;2022-10-23T08:09:40;9.90;;;5.10;;
68910;SDS011;55953;51.650;-0.522;2022-10-23T08:12:09;13.00;;;5.20;;
68910;SDS011;55953;51.650;-0.522;2022-10-23T08:14:37;6.40;;;4.30;;
68910;SDS011;55953;51.650;-0.522;2022-10-23T08:17:05;13.90;;;4.40;;
68910;SDS011;55953;51.650;-0.522;2022-10-23T08:20:03;8.20;;;4.60;;
68910;SDS011;55953;51.650;-0.522;2022-10-23T08:22:36;15.60;;;5.10;;
68910;SDS011;55953;51.650;-0.522;2022-10-23T08:25:05;12.30;;;4.70;;
68910;SDS011;55953;51.650;-0.522;2022-10-23T08:27:33;9.60;;;5.10;;
68910;SDS011;55953;51.650;-0.522;2022-10-23T08:30:01;14.40;;;5.20;;
68910;SDS011;55953;51.650;-0.522;2022-10-23T08:32:30;13.40;;;5.40;;
68910;SDS011;55953;51.650;-0.522;2022-10-23T08:34:59;11.60;;;5.40;;
68910;SDS011;55953;51.650;-0.522;2022-10-23T08:37:30;9.60;;;4.80;;
68910;SDS011;55953;51.650;-0.522;2022-10-23T08:39:58;11.20;;;4.40;;
68910;SDS011;55953;51.650;-0.522;2022-10-23T08:42:52;14.30;;;4.80;;
68910;SDS011;55953;51.650;-0.522;2022-10-23T08:45:51;11.20;;;5.20;;
68910;SDS011;55953;51.650;-0.522;2022-10-23T08:51:51;11.20;;;4.50;;
68910;SDS011;55953;51.650;-0.522;2022-10-23T08:57:27;18.20;;;4.60;;
68910;SDS011;55953;51.650;-0.522;2022-10-23T09:00:12;13.00;;;4.90;;
68910;SDS011;55953;51.650;-0.522;2022-10-23T09:02:45;10.50;;;4.20;;
68910;SDS011;55953;51.650;-0.522;2022-10-23T09:05:20;12.60;;;4.50;;
68910;SDS011;55953;51.650;-0.522;2022-10-23T09:19:18;15.00;;;5.10;;
68910;SDS011;55953;51.650;-0.522;2022-10-23T09:21:55;10.90;;;4.70;;
68910;SDS011;55953;51.650;-0.522;2022-10-23T09:24:24;11.60;;;4.00;;
68910;SDS011;55953;51.650;-0.522;2022-10-23T09:26:53;12.00;;;3.90;;
68910;SDS011;55953;51.650;-0.522;2022-10-23T09:29:25;7.80;;;4.10;;
68910;SDS011;55953;51.650;-0.522;2022-10-23T09:31:57;12.10;;;4.00;;
68910;SDS011;55953;51.650;-0.522;2022-10-23T09:34:33;6.30;;;3.30;;
68910;SDS011;55953;51.650;-0.522;2022-10-23T09:37:21;8.10;;;3.20;;
68910;SDS011;55953;51.650;-0.522;2022-10-23T09:40:00;6.40;;;2.70;;
68910;SDS011;55953;51.650;-0.522;2022-10-23T09:42:50;9.00;;;3.60;;
68910;SDS011;55953;51.650;-0.522;2022-10-23T09:45:24;10.80;;;3.90;;
68910;SDS011;55953;51.650;-0.522;2022-10-23T09:48:16;8.20;;;3.10;;
68910;SDS011;55953;51.650;-0.522;2022-10-23T09:50:51;4.40;;;2.60;;
68910;SDS011;55953;51.650;-0.522;2022-10-23T09:53:39;9.30;;;2.50;;
68910;SDS011;55953;51.650;-0.522;2022-10-23T09:56:39;7.10;;;2.80;;
68910;SDS011;55953;51.650;-0.522;2022-10-23T10:04:39;4.30;;;2.80;;
68910;SDS011;55953;51.650;-0.522;2022-10-23T10:09:49;6.00;;;2.60;;
68910;SDS011;55953;51.650;-0.522;2022-10-23T10:15:36;6.80;;;2.90;;
68910;SDS011;55953;51.650;-0.522;2022-10-23T10:18:29;7.50;;;2.70;;
68910;SDS011;55953;51.650;-0.522;2022-10-23T10:21:37;8.30;;;3.40;;
68910;SDS011;55953;51.650;-0.522;2022-10-23T10:24:17;7.80;;;3.60;;
68910;SDS011;55953;51.650;-0.522;2022-10-23T10:26:57;7.80;;;3.40;;
68910;SDS011;55953;51.650;-0.522;2022-10-23T10:30:11;6.00;;;2.90;;
68910;SDS011;55953;51.650;-0.522;2022-10-23T10:32:53;6.50;;;3.10;;
68910;SDS011;55953;51.650;-0.522;2022-10-23T10:35:37;6.30;;;3.20;;
68910;SDS011;55953;51.650;-0.522;2022-10-23T10:38:34;5.30;;;3.20;;
68910;SDS011;55953;51.650;-0.522;2022-10-23T10:44:23;7.50;;;3.20;;
68910;SDS011;55953;51.650;-0.522;2022-10-23T10:56:13;7.30;;;2.60;;
68910;SDS011;55953;51.650;-0.522;2022-10-23T10:58:52;6.10;;;2.60;;
68910;SDS011;55953;51.650;-0.522;2022-10-23T11:01:33;7.30;;;2.80;;
68910;SDS011;55953;51.650;-0.522;2022-10-23T11:04:17;6.10;;;2.60;;
68910;SDS011;55953;51.650;-0.522;2022-10-23T11:06:56;8.20;;;3.70;;
68910;SDS011;55953;51.650;-0.522;2022-10-23T11:09:27;7.80;;;2.70;;
68910;SDS011;55953;51.650;-0.522;2022-10-23T11:11:58;8.90;;;3.00;;
68910;SDS011;55953;51.650;-0.522;2022-10-23T11:14:29;5.20;;;2.70;;
68910;SDS011;55953;51.650;-0.522;2022-10-23T11:17:17;5.70;;;2.80;;
68910;SDS011;55953;51.650;-0.522;2022-10-23T11:24:17;8.90;;;3.00;;
68910;SDS011;55953;51.650;-0.522;2022-10-23T11:26:56;7.90;;;3.10;;
68910;SDS011;55953;51.650;-0.522;2022-10-23T11:35:19;8.10;;;2.80;;
68910;SDS011;55953;51.650;-0.522;2022-10-23T11:38:29;8.10;;;2.90;;
68910;SDS011;55953;51.650;-0.522;2022-10-23T11:41:06;7.40;;;2.60;;
68910;SDS011;55953;51.650;-0.522;2022-10-23T11:43:55;8.50;;;2.40;;
68910;SDS011;55953;51.650;-0.522;2022-10-23T11:46:33;6.30;;;2.20;;
68910;SDS011;55953;51.650;-0.522;2022-10-23T11:49:17;7.70;;;2.00;;
68910;SDS011;55953;51.650;-0.522;2022-10-23T11:51:59;7.50;;;2.30;;
68910;SDS011;55953;51.650;-0.522;2022-10-23T11:54:32;5.10;;;1.90;;
68910;SDS011;55953;51.650;-0.522;2022-10-23T12:02:35;7.00;;;1.70;;
68910;SDS011;55953;51.650;-0.522;2022-10-23T12:05:06;6.70;;;2.40;;
68910;SDS011;55953;51.650;-0.522;2022-10-23T12:07:53;7.00;;;2.10;;
68910;SDS011;55953;51.650;-0.522;2022-10-23T12:10:35;7.10;;;2.90;;
68910;SDS011;55953;51.650;-0.522;2022-10-23T12:13:30;6.30;;;2.90;;
68910;SDS011;55953;51.650;-0.522;2022-10-23T12:16:05;4.80;;;2.00;;
68910;SDS011;55953;51.650;-0.522;2022-10-23T12:18:48;3.90;;;1.70;;
68910;SDS011;55953;51.650;-0.522;2022-10-23T12:21:24;5.70;;;1.40;;
68910;SDS011;55953;51.650;-0.522;2022-10-23T12:24:01;4.90;;;1.50;;
68910;SDS011;55953;51.650;-0.522;2022-10-23T12:38:24;4.10;;;1.40;;
68910;SDS011;55953;51.650;-0.522;2022-10-23T12:41:24;7.50;;;1.50;;
68910;SDS011;55953;51.650;-0.522;2022-10-23T12:44:00;5.30;;;1.60;;
68910;SDS011;55953;51.650;-0.522;2022-10-23T12:46:34;5.30;;;1.60;;
68910;SDS011;55953;51.650;-0.522;2022-10-23T12:49:21;7.20;;;1.80;;
68910;SDS011;55953;51.650;-0.522;2022-10-23T12:52:14;5.80;;;1.80;;
68910;SDS011;55953;51.650;-0.522;2022-10-23T12:54:44;7.80;;;1.80;;
68910;SDS011;55953;51.650;-0.522;2022-10-23T12:57:19;8.50;;;2.00;;
68910;SDS011;55953;51.650;-0.522;2022-10-23T12:59:55;10.70;;;2.00;;
68910;SDS011;55953;51.650;-0.522;2022-10-23T13:02:27;5.20;;;1.90;;
68910;SDS011;55953;51.650;-0.522;2022-10-23T13:05:00;4.50;;;1.80;;
68910;SDS011;55953;51.650;-0.522;2022-10-23T13:07:35;4.80;;;1.90;;
68910;SDS011;55953;51.650;-0.522;2022-10-23T13:10:13;7.10;;;1.70;;
68910;SDS011;55953;51.650;-0.522;2022-10-23T13:13:05;7.70;;;1.80;;
68910;SDS011;55953;51.650;-0.522;2022-10-23T13:15:42;9.80;;;1.90;;
68910;SDS011;55953;51.650;-0.522;2022-10-23T13:18:13;8.50;;;1.90;;
68910;SDS011;55953;51.650;-0.522;2022-10-23T13:20:53;5.60;;;2.00;;
68910;SDS011;55953;51.650;-0.522;2022-10-23T13:23:31;7.50;;;1.90;;
68910;SDS011;55953;51.650;-0.522;2022-10-23T13:28:51;5.10;;;2.00;;
68910;SDS011;55953;51.650;-0.522;2022-10-23T13:33:49;8.30;;;2.20;;
68910;SDS011;55953;51.650;-0.522;2022-10-23T13:36:34;5.90;;;2.10;;
68910;SDS011;55953;51.650;-0.522;2022-10-23T13:41:40;5.70;;;2.30;;
68910;SDS011;55953;51.650;-0.522;2022-10-23T13:44:15;5.60;;;2.20;;
68910;SDS011;55953;51.650;-0.522;2022-10-23T13:46:45;7.30;;;2.30;;
68910;SDS011;55953;51.650;-0.522;2022-10-23T13:49:15;7.80;;;2.30;;
68910;SDS011;55953;51.650;-0.522;2022-10-23T13:51:48;7.50;;;2.10;;
68910;SDS011;55953;51.650;-0.522;2022-10-23T13:54:19;7.20;;;2.20;;
68910;SDS011;55953;51.650;-0.522;2022-10-23T13:56:50;10.80;;;2.50;;
68910;SDS011;55953;51.650;-0.522;2022-10-23T13:59:19;7.90;;;2.30;;
68910;SDS011;55953;51.650;-0.522;2022-10-23T14:01:48;6.50;;;2.20;;
68910;SDS011;55953;51.650;-0.522;2022-10-23T14:04:18;9.20;;;2.60;;
68910;SDS011;55953;51.650;-0.522;2022-10-23T14:06:46;9.30;;;2.40;;
68910;SDS011;55953;51.650;-0.522;2022-10-23T14:09:17;8.50;;;2.60;;
68910;SDS011;55953;51.650;-0.522;2022-10-23T14:11:45;7.90;;;2.40;;
68910;SDS011;55953;51.650;-0.522;2022-10-23T14:14:14;6.50;;;2.30;;
68910;SDS011;55953;51.650;-0.522;2022-10-23T14:16:42;6.40;;;2.20;;
68910;SDS011;55953;51.650;-0.522;2022-10-23T14:19:10;8.50;;;2.20;;
68910;SDS011;55953;51.650;-0.522;2022-10-23T14:21:38;4.90;;;1.90;;
68910;SDS011;55953;51.650;-0.522;2022-10-23T14:24:07;7.20;;;1.90;;
68910;SDS011;55953;51.650;-0.522;2022-10-23T14:26:35;8.00;;;2.00;;
68910;SDS011;55953;51.650;-0.522;2022-10-23T14:29:04;9.80;;;2.30;;
68910;SDS011;55953;51.650;-0.522;2022-10-23T14:31:36;8.10;;;2.20;;
68910;SDS011;55953;51.650;-0.522;2022-10-23T14:34:04;7.40;;;2.10;;
68910;SDS011;55953;51.650;-0.522;2022-10-23T14:36:33;5.00;;;1.80;;
68910;SDS011;55953;51.650;-0.522;2022-10-23T14:39:17;9.70;;;2.30;;
68910;SDS011;55953;51.650;-0.522;2022-10-23T14:41:45;5.30;;;2.20;;
68910;SDS011;55953;51.650;-0.522;2022-10-23T14:44:13;7.90;;;1.90;;
68910;SDS011;55953;51.650;-0.522;2022-10-23T14:46:41;7.80;;;2.40;;
68910;SDS011;55953;51.650;-0.522;2022-10-23T14:49:09;8.30;;;2.10;;
68910;SDS011;55953;51.650;-0.522;2022-10-23T14:51:37;7.80;;;2.70;;
68910;SDS011;55953;51.650;-0.522;2022-10-23T14:54:06;6.10;;;1.90;;
68910;SDS011;55953;51.650;-0.522;2022-10-23T14:56:36;7.40;;;1.70;;
68910;SDS011;55953;51.650;-0.522;2022-10-23T14:59:07;7.70;;;3.40;;
68910;SDS011;55953;51.650;-0.522;2022-10-23T15:01:39;10.70;;;2.30;;
68910;SDS011;55953;51.650;-0.522;2022-10-23T15:04:13;11.60;;;3.00;;
68910;SDS011;55953;51.650;-0.522;2022-10-23T15:06:42;6.90;;;2.00;;
68910;SDS011;55953;51.650;-0.522;2022-10-23T15:09:12;8.90;;;2.30;;
68910;SDS011;55953;51.650;-0.522;2022-10-23T15:11:41;8.60;;;1.80;;
68910;SDS011;55953;51.650;-0.522;2022-10-23T15:14:09;8.10;;;2.00;;
68910;SDS011;55953;51.650;-0.522;2022-10-23T15:16:38;13.20;;;3.50;;
68910;SDS011;55953;51.650;-0.522;2022-10-23T15:19:11;8.00;;;3.40;;
68910;SDS011;55953;51.650;-0.522;2022-10-23T15:21:46;13.00;;;4.00;;
68910;SDS011;55953;51.650;-0.522;2022-10-23T15:24:15;12.30;;;4.30;;
68910;SDS011;55953;51.650;-0.522;2022-10-23T15:26:44;12.50;;;2.40;;
68910;SDS011;55953;51.650;-0.522;2022-10-23T15:29:12;8.80;;;2.80;;
68910;SDS011;55953;51.650;-0.522;2022-10-23T15:31:52;11.90;;;2.90;;
68910;SDS011;55953;51.650;-0.522;2022-10-23T15:34:25;5.40;;;2.20;;
68910;SDS011;55953;51.650;-0.522;2022-10-23T15:36:56;10.50;;;2.30;;
68910;SDS011;55953;51.650;-0.522;2022-10-23T15:39:26;10.10;;;2.50;;
68910;SDS011;55953;51.650;-0.522;2022-10-23T15:42:02;9.20;;;2.20;;
68910;SDS011;55953;51.650;-0.522;2022-10-23T15:44:32;11.50;;;2.90;;
68910;SDS011;55953;51.650;-0.522;2022-10-23T15:47:01;7.60;;;2.40;;
68910;SDS011;55953;51.650;-0.522;2022-10-23T15:49:28;8.90;;;2.50;;
68910;SDS011;55953;51.650;-0.522;2022-10-23T15:51:57;11.90;;;2.40;;
68910;SDS011;55953;51.650;-0.522;2022-10-23T15:54:25;5.80;;;2.50;;
68910;SDS011;55953;51.650;-0.522;2022-10-23T15:57:00;10.70;;;3.00;;
68910;SDS011;55953;51.650;-0.522;2022-10-23T15:59:30;10.40;;;3.10;;
68910;SDS011;55953;51.650;-0.522;2022-10-23T16:01:59;11.60;;;4.40;;
68910;SDS011;55953;51.650;-0.522;2022-10-23T16:04:27;10.50;;;3.40;;
68910;SDS011;55953;51.650;-0.522;2022-10-23T16:06:55;7.20;;;4.10;;
68910;SDS011;55953;51.650;-0.522;2022-10-23T16:09:23;11.60;;;3.40;;
68910;SDS011;55953;51.650;-0.522;2022-10-23T16:11:51;11.30;;;3.40;;
68910;SDS011;55953;51.650;-0.522;2022-10-23T16:14:19;8.10;;;3.10;;
68910;SDS011;55953;51.650;-0.522;2022-10-23T16:16:47;8.30;;;2.90;;
68910;SDS011;55953;51.650;-0.522;2022-10-23T16:19:15;11.60;;;2.50;;
68910;SDS011;55953;51.650;-0.522;2022-10-23T16:21:43;7.50;;;1.30;;
68910;SDS011;55953;51.650;-0.522;2022-10-23T16:24:11;4.10;;;1.10;;
68910;SDS011;55953;51.650;-0.522;2022-10-23T16:26:39;6.00;;;1.70;;
68910;SDS011;55953;51.650;-0.522;2022-10-23T16:29:08;4.40;;;1.20;;
68910;SDS011;55953;51.650;-0.522;2022-10-23T16:31:37;4.80;;;1.50;;
68910;SDS011;55953;51.650;-0.522;2022-10-23T16:34:06;3.20;;;1.20;;
68910;SDS011;55953;51.650;-0.522;2022-10-23T16:36:35;4.60;;;1.30;;
68910;SDS011;55953;51.650;-0.522;2022-10-23T16:39:13;2.50;;;1.20;;
68910;SDS011;55953;51.650;-0.522;2022-10-23T16:42:03;3.30;;;1.40;;
68910;SDS011;55953;51.650;-0.522;2022-10-23T16:45:05;7.30;;;1.60;;
68910;SDS011;55953;51.650;-0.522;2022-10-23T16:47:33;4.00;;;1.50;;
68910;SDS011;55953;51.650;-0.522;2022-10-23T16:50:02;4.60;;;1.60;;
68910;SDS011;55953;51.650;-0.522;2022-10-23T16:52:30;11.60;;;2.90;;
68910;SDS011;55953;51.650;-0.522;2022-10-23T16:54:58;9.90;;;3.10;;
68910;SDS011;55953;51.650;-0.522;2022-10-23T16:57:26;12.40;;;3.80;;
68910;SDS011;55953;51.650;-0.522;2022-10-23T16:59:54;12.80;;;4.30;;